| time (UTC) | temp C | wind direction | speed KPH | gust KPH | rain 1hr cm | rain 24hr cm | rain mn cm | humidity % | barometer mb |
| 20260901224800 | 13 | 280 | 1.6 | 4.8 | 0.00 | 0.00 | 0.00 | 93 | 1003.3 |
| 20260901223830 | 14 | 283 | 3.2 | 4.8 | 0.00 | 0.00 | 0.00 | 93 | 1003.4 |
| 20260901222935 | 14 | 273 | 3.2 | 6.4 | 0.00 | 0.00 | 0.00 | 93 | 1003.4 |
| 20260901222020 | 14 | 257 | 3.2 | 8.0 | 0.00 | 0.00 | 0.00 | 93 | 1003.3 |
| 20260901221132 | 14 | 260 | 3.2 | 8.0 | 0.00 | 0.00 | 0.00 | 93 | 1003.3 |
| 20260901220220 | 14 | 252 | 3.2 | 9.7 | 0.00 | 0.00 | 0.00 | 93 | 1003.3 |
| 20260901215340 | 14 | 264 | 3.2 | 8.0 | 0.00 | 0.00 | 0.00 | 93 | 1003.3 |
| 20260901214455 | 14 | 256 | 3.2 | 9.7 | 0.00 | 0.00 | 0.00 | 93 | 1003.2 |
| 20260901213632 | 14 | 253 | 3.2 | 6.4 | 0.00 | 0.00 | 0.00 | 93 | 1003.2 |
| 20260901212739 | 14 | 245 | 3.2 | 6.4 | 0.00 | 0.00 | 0.00 | 93 | 1003.2 |
| 20260901211910 | 14 | 224 | 3.2 | 4.8 | 0.00 | 0.00 | 0.00 | 93 | 1003.2 |
| 20260901210956 | 14 | 228 | 1.6 | 4.8 | 0.00 | 0.00 | 0.00 | 93 | 1003.2 |
| 20260901210132 | 14 | 226 | 0.0 | 1.6 | 0.00 | 0.00 | 0.00 | 93 | 1003.2 |
| 20260901205220 | 14 | 196 | 1.6 | 3.2 | 0.00 | 0.00 | 0.00 | 93 | 1003.2 |
| 20260901204400 | 14 | 181 | 1.6 | 4.8 | 0.00 | 0.00 | 0.00 | 93 | 1003.3 |
| 20260901203435 | 14 | 190 | 1.6 | 4.8 | 0.00 | 0.00 | 0.00 | 92 | 1003.3 |
| 20260901202530 | 14 | 179 | 1.6 | 6.4 | 0.00 | 0.00 | 0.00 | 92 | 1003.3 |
| 20260901201652 | 14 | 188 | 1.6 | 6.4 | 0.00 | 0.00 | 0.00 | 92 | 1003.3 |
| 20260901200804 | 15 | 143 | 1.6 | 6.4 | 0.00 | 0.00 | 0.00 | 92 | 1003.2 |
| 20260901195915 | 15 | 152 | 1.6 | 4.8 | 0.00 | 0.00 | 0.00 | 92 | 1003.2 |
| 20260901195025 | 15 | 173 | 1.6 | 4.8 | 0.00 | 0.00 | 0.00 | 92 | 1003.0 |
| 20260901194100 | 15 | 201 | 1.6 | 4.8 | 0.00 | 0.00 | 0.00 | 92 | 1002.9 |
| 20260901193210 | 15 | 186 | 1.6 | 3.2 | 0.00 | 0.00 | 0.00 | 91 | 1002.9 |
| 20260901192310 | 15 | 183 | 1.6 | 3.2 | 0.00 | 0.00 | 0.00 | 91 | 1002.9 |
| 20260901191425 | 15 | 215 | 1.6 | 3.2 | 0.00 | 0.00 | 0.00 | 91 | 1002.9 |
| 20260901190500 | 15 | 177 | 1.6 | 4.8 | 0.00 | 0.00 | 0.00 | 91 | 1002.9 |
| 20260901185610 | 15 | 171 | 1.6 | 4.8 | 0.00 | 0.00 | 0.00 | 91 | 1002.9 |
| 20260901184702 | 15 | 192 | 1.6 | 4.8 | 0.00 | 0.00 | 0.00 | 90 | 1002.9 |
| 20260901183840 | 15 | 178 | 3.2 | 4.8 | 0.00 | 0.00 | 0.00 | 90 | 1002.8 |
| 20260901182945 | 15 | 159 | 1.6 | 4.8 | 0.00 | 0.00 | 0.00 | 89 | 1002.7 |
| 20260901182116 | 16 | 165 | 1.6 | 4.8 | 0.00 | 0.00 | 0.00 | 89 | 1002.7 |
| 20260901181215 | 16 | 165 | 1.6 | 4.8 | 0.00 | 0.00 | 0.00 | 88 | 1002.6 |
| 20260901180405 | 16 | 184 | 1.6 | 6.4 | 0.00 | 0.00 | 0.00 | 88 | 1002.5 |
| 20260901175530 | 16 | 172 | 1.6 | 4.8 | 0.00 | 0.00 | 0.00 | 87 | 1002.4 |
| 20260901174638 | 16 | 191 | 1.6 | 6.4 | 0.00 | 0.00 | 0.00 | 86 | 1002.4 |
| 20260901173755 | 16 | 180 | 3.2 | 9.7 | 0.00 | 0.00 | 0.00 | 86 | 1002.4 |
| 20260901172918 | 17 | 178 | 3.2 | 8.0 | 0.00 | 0.00 | 0.00 | 85 | 1002.4 |
| 20260901172010 | 17 | 183 | 3.2 | 9.7 | 0.00 | 0.00 | 0.00 | 84 | 1002.3 |
| 20260901171055 | 17 | 188 | 1.6 | 6.4 | 0.00 | 0.00 | 0.00 | 82 | 1002.1 |
| 20260901170210 | 17 | 192 | 1.6 | 4.8 | 0.00 | 0.00 | 0.00 | 82 | 1002.0 |
| 20260901165315 | 17 | 192 | 1.6 | 6.4 | 0.00 | 0.00 | 0.00 | 81 | 1001.9 |
| 20260901164405 | 17 | 197 | 1.6 | 4.8 | 0.00 | 0.00 | 0.00 | 81 | 1001.8 |
| 20260901163450 | 17 | 182 | 1.6 | 6.4 | 0.00 | 0.00 | 0.00 | 80 | 1001.8 |
| 20260901162550 | 17 | 199 | 3.2 | 8.0 | 0.00 | 0.00 | 0.00 | 80 | 1001.8 |
| 20260901161635 | 18 | 184 | 3.2 | 8.0 | 0.00 | 0.00 | 0.00 | 79 | 1001.9 |
| 20260901160725 | 18 | 184 | 4.8 | 8.0 | 0.00 | 0.00 | 0.00 | 78 | 1001.8 |
| 20260901155755 | 18 | 182 | 3.2 | 6.4 | 0.00 | 0.00 | 0.00 | 76 | 1001.6 |
| 20260901154910 | 18 | 205 | 4.8 | 9.7 | 0.00 | 0.00 | 0.00 | 73 | 1001.5 |
| 20260901154000 | 19 | 195 | 4.8 | 11.3 | 0.00 | 0.00 | 0.00 | 71 | 1001.4 |
| 20260901153115 | 19 | 216 | 4.8 | 12.9 | 0.00 | 0.00 | 0.00 | 70 | 1001.4 |
| 20260901152220 | 19 | 227 | 4.8 | 14.5 | 0.00 | 0.00 | 0.00 | 69 | 1001.4 |
| 20260901151332 | 19 | 262 | 4.8 | 11.3 | 0.00 | 0.00 | 0.00 | 69 | 1001.4 |
| 20260901150435 | 20 | 232 | 4.8 | 11.3 | 0.00 | 0.00 | 0.00 | 65 | 1001.1 |
| 20260901145520 | 20 | 234 | 3.2 | 11.3 | 0.00 | 0.00 | 0.00 | 65 | 1001.1 |
| 20260901144615 | 20 | 225 | 6.4 | 14.5 | 0.00 | 0.00 | 0.00 | 63 | 1001.2 |
| 20260901143709 | 20 | 210 | 3.2 | 12.9 | 0.00 | 0.00 | 0.00 | 68 | 1001.3 |
| 20260901142840 | 19 | 215 | 3.2 | 9.7 | 0.00 | 0.00 | 0.00 | 69 | 1001.5 |
| 20260901141915 | 19 | 219 | 6.4 | 14.5 | 0.00 | 0.00 | 0.00 | 69 | 1001.6 |
| 20260901140950 | 19 | 224 | 4.8 | 16.1 | 0.00 | 0.00 | 0.00 | 68 | 1001.6 |
| 20260901140040 | 19 | 223 | 6.4 | 17.7 | 0.00 | 0.00 | 0.00 | 70 | 1001.8 |
| 20260901135132 | 19 | 241 | 8.0 | 17.7 | 0.00 | 0.00 | 0.00 | 69 | 1001.8 |
| 20260901134244 | 20 | 247 | 9.7 | 27.4 | 0.00 | 0.00 | 0.00 | 66 | 1001.6 |
| 20260901133335 | 20 | 250 | 8.0 | 19.3 | 0.00 | 0.00 | 0.00 | 67 | 1001.5 |
| 20260901132435 | 19 | 225 | 8.0 | 16.1 | 0.00 | 0.00 | 0.00 | 68 | 1001.6 |
| 20260901131535 | 19 | 238 | 6.4 | 17.7 | 0.00 | 0.00 | 0.00 | 70 | 1001.7 |
| 20260901130645 | 18 | 254 | 9.7 | 19.3 | 0.00 | 0.00 | 0.00 | 70 | 1001.9 |
| 20260901125740 | 18 | 223 | 6.4 | 19.3 | 0.00 | 0.00 | 0.00 | 71 | 1001.9 |
| 20260901124850 | 18 | 220 | 9.7 | 17.7 | 0.00 | 0.00 | 0.00 | 72 | 1002.0 |
| 20260901123920 | 18 | 215 | 11.3 | 22.5 | 0.00 | 0.00 | 0.00 | 72 | 1002.1 |
| 20260901123045 | 18 | 226 | 11.3 | 22.5 | 0.00 | 0.00 | 0.00 | 72 | 1002.2 |
| 20260901122130 | 18 | 222 | 8.0 | 19.3 | 0.00 | 0.00 | 0.00 | 73 | 1002.6 |
| 20260901121245 | 18 | 222 | 9.7 | 22.5 | 0.00 | 0.00 | 0.00 | 73 | 1002.7 |
| 20260901120350 | 18 | 234 | 9.7 | 24.1 | 0.00 | 0.00 | 0.00 | 72 | 1002.6 |
| 20260901115515 | 18 | 220 | 11.3 | 17.7 | 0.00 | 0.00 | 0.00 | 72 | 1002.7 |
| 20260901114615 | 18 | 216 | 12.9 | 22.5 | 0.00 | 0.00 | 0.00 | 71 | 1002.7 |
| 20260901113658 | 18 | 220 | 8.0 | 20.9 | 0.00 | 0.00 | 0.00 | 71 | 1002.6 |
| 20260901112750 | 18 | 207 | 9.7 | 19.3 | 0.00 | 0.00 | 0.00 | 71 | 1002.6 |
| 20260901111825 | 18 | 210 | 8.0 | 19.3 | 0.00 | 0.00 | 0.00 | 74 | 1002.6 |
| 20260901110920 | 17 | 204 | 9.7 | 19.3 | 0.00 | 0.00 | 0.00 | 76 | 1002.7 |
| 20260901110030 | 18 | 200 | 4.8 | 12.9 | 0.00 | 0.00 | 0.00 | 76 | 1002.7 |
| 20260901105152 | 17 | 201 | 6.4 | 16.1 | 0.00 | 0.00 | 0.00 | 76 | 1002.8 |
| 20260901104250 | 17 | 210 | 8.0 | 17.7 | 0.00 | 0.00 | 0.00 | 74 | 1002.9 |
| 20260901103359 | 17 | 211 | 9.7 | 19.3 | 0.00 | 0.00 | 0.00 | 74 | 1002.8 |
| 20260901102514 | 17 | 207 | 8.0 | 20.9 | 0.00 | 0.00 | 0.00 | 72 | 1002.8 |
| 20260901101630 | 17 | 218 | 6.4 | 16.1 | 0.00 | 0.00 | 0.00 | 76 | 1002.8 |
| 20260901100720 | 17 | 206 | 8.0 | 17.7 | 0.00 | 0.00 | 0.00 | 78 | 1002.9 |
| 20260901095835 | 17 | 205 | 6.4 | 14.5 | 0.00 | 0.00 | 0.00 | 79 | 1002.8 |
| 20260901095020 | 17 | 208 | 8.0 | 17.7 | 0.00 | 0.00 | 0.00 | 79 | 1002.7 |
| 20260901094125 | 17 | 197 | 8.0 | 14.5 | 0.00 | 0.00 | 0.00 | 79 | 1002.6 |
| 20260901093230 | 17 | 202 | 9.7 | 20.9 | 0.00 | 0.00 | 0.00 | 79 | 1002.6 |
| 20260901092344 | 17 | 197 | 8.0 | 19.3 | 0.00 | 0.00 | 0.00 | 81 | 1002.6 |
| 20260901091455 | 17 | 197 | 6.4 | 14.5 | 0.00 | 0.00 | 0.00 | 84 | 1002.8 |
| 20260901090555 | 17 | 204 | 8.0 | 17.7 | 0.00 | 0.00 | 0.00 | 83 | 1002.7 |
| 20260901085645 | 17 | 202 | 6.4 | 14.5 | 0.00 | 0.00 | 0.00 | 78 | 1002.5 |
| 20260901084735 | 17 | 225 | 4.8 | 11.3 | 0.00 | 0.00 | 0.00 | 78 | 1002.4 |
| 20260901083852 | 17 | 228 | 6.4 | 12.9 | 0.00 | 0.00 | 0.00 | 78 | 1002.5 |
| 20260901082905 | 17 | 212 | 6.4 | 16.1 | 0.00 | 0.00 | 0.00 | 78 | 1002.5 |
| 20260901082025 | 17 | 206 | 6.4 | 12.9 | 0.00 | 0.00 | 0.00 | 78 | 1002.5 |
| 20260901081140 | 17 | 209 | 4.8 | 11.3 | 0.00 | 0.00 | 0.00 | 78 | 1002.5 |
| 20260901080220 | 17 | 213 | 6.4 | 17.7 | 0.00 | 0.00 | 0.00 | 79 | 1002.6 |
| 20260901075325 | 17 | 218 | 3.2 | 9.7 | 0.00 | 0.00 | 0.00 | 80 | 1002.6 |
| 20260901074445 | 17 | 215 | 4.8 | 12.9 | 0.00 | 0.00 | 0.00 | 79 | 1002.6 |
| 20260901073559 | 17 | 209 | 4.8 | 12.9 | 0.00 | 0.00 | 0.00 | 79 | 1002.5 |
| 20260901072746 | 17 | 206 | 4.8 | 11.3 | 0.00 | 0.00 | 0.00 | 80 | 1002.6 |
| 20260901071825 | 17 | 219 | 4.8 | 12.9 | 0.00 | 0.00 | 0.00 | 82 | 1002.7 |
| 20260901070905 | 16 | 214 | 6.4 | 14.5 | 0.00 | 0.00 | 0.00 | 82 | 1002.8 |
| 20260901065952 | 16 | 211 | 4.8 | 11.3 | 0.00 | 0.00 | 0.00 | 82 | 1002.8 |
| 20260901065030 | 16 | 203 | 4.8 | 12.9 | 0.00 | 0.00 | 0.00 | 84 | 1002.8 |
| 20260901064140 | 16 | 205 | 4.8 | 9.7 | 0.00 | 0.00 | 0.00 | 86 | 1002.9 |
| 20260901063215 | 16 | 208 | 6.4 | 11.3 | 0.00 | 0.00 | 0.00 | 86 | 1003.0 |
| 20260901062340 | 16 | 214 | 4.8 | 9.7 | 0.00 | 0.00 | 0.00 | 87 | 1003.0 |
| 20260901061425 | 16 | 224 | 3.2 | 8.0 | 0.00 | 0.00 | 0.00 | 88 | 1003.0 |
| 20260901060550 | 15 | 216 | 4.8 | 9.7 | 0.00 | 0.00 | 0.00 | 88 | 1003.1 |
| 20260901055635 | 15 | 218 | 4.8 | 9.7 | 0.00 | 0.00 | 0.00 | 89 | 1003.2 |
| 20260901054730 | 15 | 202 | 3.2 | 8.0 | 0.00 | 0.00 | 0.00 | 89 | 1003.2 |
| 20260901053820 | 15 | 213 | 3.2 | 8.0 | 0.00 | 0.00 | 0.00 | 90 | 1003.3 |
| 20260901052905 | 15 | 212 | 4.8 | 9.7 | 0.00 | 0.00 | 0.00 | 90 | 1003.4 |
| 20260901052009 | 15 | 208 | 4.8 | 11.3 | 0.00 | 0.00 | 0.00 | 91 | 1003.4 |
| 20260901051055 | 15 | 207 | 6.4 | 9.7 | 0.00 | 0.00 | 0.00 | 91 | 1003.5 |
| 20260901050210 | 15 | 207 | 6.4 | 12.9 | 0.00 | 0.00 | 0.00 | 91 | 1003.4 |
| 20260901045252 | 15 | 202 | 4.8 | 9.7 | 0.00 | 0.00 | 0.00 | 91 | 1003.4 |
| 20260901044429 | 15 | 185 | 3.2 | 9.7 | 0.00 | 0.00 | 0.00 | 91 | 1003.4 |
| 20260901043459 | 15 | 184 | 1.6 | 4.8 | 0.00 | 0.00 | 0.00 | 91 | 1003.4 |
| 20260901042616 | 15 | 180 | 1.6 | 6.4 | 0.00 | 0.00 | 0.00 | 91 | 1003.4 |
| 20260901041745 | 15 | 197 | 3.2 | 6.4 | 0.00 | 0.00 | 0.00 | 91 | 1003.5 |
| 20260901040840 | 15 | 200 | 3.2 | 6.4 | 0.00 | 0.00 | 0.00 | 91 | 1003.6 |
| 20260901035953 | 15 | 213 | 3.2 | 6.4 | 0.00 | 0.00 | 0.00 | 91 | 1003.6 |
| 20260901035115 | 15 | 217 | 3.2 | 8.0 | 0.00 | 0.00 | 0.00 | 91 | 1003.7 |
| 20260901034220 | 15 | 209 | 4.8 | 8.0 | 0.00 | 0.00 | 0.00 | 91 | 1003.7 |
| 20260901033245 | 15 | 209 | 3.2 | 6.4 | 0.00 | 0.00 | 0.00 | 91 | 1003.7 |
| 20260901032341 | 15 | 205 | 3.2 | 12.9 | 0.00 | 0.00 | 0.00 | 91 | 1003.6 |
| 20260901031515 | 15 | 206 | 4.8 | 8.0 | 0.00 | 0.00 | 0.00 | 91 | 1003.6 |
| 20260901030616 | 14 | 212 | 3.2 | 9.7 | 0.00 | 0.00 | 0.00 | 91 | 1003.7 |
| 20260901025745 | 14 | 217 | 3.2 | 9.7 | 0.00 | 0.00 | 0.00 | 92 | 1003.6 |
| 20260901024925 | 14 | 221 | 4.8 | 11.3 | 0.00 | 0.00 | 0.00 | 92 | 1003.7 |
| 20260901024015 | 14 | 228 | 4.8 | 11.3 | 0.00 | 0.00 | 0.00 | 92 | 1003.7 |
| 20260901023112 | 14 | 217 | 4.8 | 11.3 | 0.00 | 0.00 | 0.00 | 92 | 1003.6 |
| 20260901022205 | 14 | 218 | 4.8 | 11.3 | 0.00 | 0.00 | 0.00 | 92 | 1003.6 |
| 20260901021325 | 14 | 211 | 6.4 | 11.3 | 0.00 | 0.00 | 0.00 | 92 | 1003.7 |
| 20260901020400 | 14 | 211 | 6.4 | 12.9 | 0.00 | 0.00 | 0.00 | 92 | 1003.6 |
| 20260901015520 | 14 | 204 | 4.8 | 12.9 | 0.00 | 0.00 | 0.00 | 92 | 1003.6 |
| 20260901014615 | 14 | 203 | 4.8 | 9.7 | 0.00 | 0.00 | 0.00 | 92 | 1003.6 |
| 20260901013712 | 14 | 204 | 4.8 | 9.7 | 0.00 | 0.00 | 0.00 | 91 | 1003.5 |
| 20260901012740 | 14 | 210 | 4.8 | 9.7 | 0.00 | 0.00 | 0.00 | 91 | 1003.5 |
| 20260901011810 | 14 | 204 | 3.2 | 9.7 | 0.00 | 0.00 | 0.00 | 91 | 1003.5 |
| 20260901010850 | 14 | 192 | 3.2 | 8.0 | 0.00 | 0.00 | 0.00 | 91 | 1003.4 |
| 20260901005935 | 14 | 196 | 3.2 | 6.4 | 0.00 | 0.00 | 0.00 | 90 | 1003.5 |
| 20260901005020 | 14 | 211 | 3.2 | 8.0 | 0.00 | 0.00 | 0.00 | 90 | 1003.5 |
| 20260901004110 | 15 | 211 | 3.2 | 6.4 | 0.00 | 0.00 | 0.00 | 90 | 1003.5 |
| 20260901003129 | 15 | 221 | 3.2 | 6.4 | 0.00 | 0.00 | 0.00 | 90 | 1003.5 |
| 20260901002245 | 15 | 210 | 3.2 | 9.7 | 0.00 | 0.00 | 0.00 | 90 | 1003.6 |
| 20260901001340 | 15 | 209 | 6.4 | 9.7 | 0.00 | 0.00 | 0.00 | 89 | 1003.6 |
| 20260901000420 | 15 | 214 | 4.8 | 11.3 | 0.00 | 0.00 | 0.00 | 89 | 1003.6 |
| 20260831235525 | 15 | 217 | 4.8 | 12.9 | 0.00 | 0.00 | 0.00 | 89 | 1003.6 |
| 20260831234535 | 15 | 218 | 6.4 | 12.9 | 0.00 | 0.00 | 0.00 | 89 | 1003.4 |
| 20260831233605 | 15 | 215 | 8.0 | 14.5 | 0.00 | 0.00 | 0.00 | 88 | 1003.4 |
| 20260831232720 | 15 | 212 | 6.4 | 16.1 | 0.00 | 0.00 | 0.00 | 88 | 1003.4 |
| 20260831231844 | 15 | 210 | 6.4 | 14.5 | 0.00 | 0.00 | 0.00 | 88 | 1003.4 |
| 20260831230850 | 15 | 210 | 6.4 | 12.9 | 0.00 | 0.00 | 0.00 | 88 | 1003.4 |
| 20260831225949 | 15 | 213 | 8.0 | 14.5 | 0.00 | 0.00 | 0.00 | 88 | 1003.3 |